Aurora — ZCDW9 — position and weather

sailwx.info

Track history (hours):
 
Tides and Currents Weather Stations Pressure Air Temp Water Temp Dewpoint Dewpoint Depression Visibility Wind Speed Wind Dir Waves Ship Positions

Aurora (Bermuda)

Last reported at 2017-Jul-26 22:36 UTC. Time now 2017-Jul-27 00:35 UTC.
Position N 36°01' W 005°09'.

Length 271 m; draft 8.3 m.

Type: Ship. MMSI: 310555970.

Date/timePositionNaut miles runAvg speedWind from/ knotsBaromVisibWave heightAir tempDewpointWater temp
2017-Jul-26 22:36N 36°01' W 005°09'220.5
2017-Jul-26 22:31N 36°01' W 005°11'1020.2
2017-Jul-26 22:00N 35°58' W 005°24'1116.0
2017-Jul-26 21:21N 35°55' W 005°36'514.6
2017-Jul-26 21:00N 35°54' W 005°30'2437.7 050 / 231013.2 2.2 22.420.325.0
2017-Jul-26 20:22N 35°55' W 005°59'1915.8
2017-Jul-26 19:11N 36°03' W 006°20'319.2
2017-Jul-26 19:01N 36°06' W 006°21'1518.4
2017-Jul-26 18:10N 36°21' W 006°24'317.5
2017-Jul-26 18:00N 36°24' W 006°25'816.1
2017-Jul-26 17:30N 36°32' W 006°23'2 0.2
2017-Jul-26 03:48N 36°34' W 006°22'617.1
2017-Jul-26 03:28N 36°34' W 006°29'917.8
2017-Jul-26 02:56N 36°34' W 006°41'818.0
2017-Jul-26 02:30N 36°34' W 006°51'1217.7
2017-Jul-26 01:49N 36°33' W 007°05'1117.9
2017-Jul-26 01:11N 36°32' W 007°20'418.0
2017-Jul-26 00:59N 36°32' W 007°24'1817.5
2017-Jul-25 23:58N 36°32' W 007°46'1817.5
2017-Jul-25 22:56N 36°32' W 008°09'917.7
2017-Jul-25 22:26N 36°32' W 008°20'817.7
2017-Jul-25 22:00N 36°31' W 008°29'917.6
2017-Jul-25 21:30N 36°31' W 008°40'917.5
2017-Jul-25 21:00N 36°32' W 008°51'917.8
2017-Jul-25 20:30N 36°32' W 009°02'917.5
2017-Jul-25 20:00N 36°34' W 009°13'7424.6
2017-Jul-25 20:00N 36°30' W 009°06'1734.5 340 / 301013.710.8 19.717.719.0
2017-Jul-25 19:30N 36°39' W 009°24'1020.4
2017-Jul-25 19:00N 36°46' W 009°32'1020.4
2017-Jul-25 18:30N 36°56' W 009°37'1020.7
2017-Jul-25 18:00N 37°06' W 009°39'1020.6
2017-Jul-25 17:30N 37°16' W 009°42'1020.4
2017-Jul-25 17:00N 37°26' W 009°45'1020.4
2017-Jul-25 16:30N 37°36' W 009°47'1020.6
2017-Jul-25 16:00N 37°46' W 009°50'1020.8
2017-Jul-25 15:30N 37°56' W 009°53'1020.5
2017-Jul-25 15:00N 38°06' W 009°56'2120.7
2017-Jul-25 14:00N 38°26' W 010°02'1020.7
2017-Jul-25 13:30N 38°36' W 010°05'1020.3
2017-Jul-25 13:00N 38°46' W 010°06'1020.3
2017-Jul-25 12:30N 38°57' W 010°08'1020.1
2017-Jul-25 12:00N 39°06' W 010°10'1020.4
2017-Jul-25 11:30N 39°17' W 010°11'1120.7
2017-Jul-25 11:00N 39°27' W 010°11'1020.0
2017-Jul-25 10:30N 39°37' W 010°10'1019.0
2017-Jul-25 10:00N 39°46' W 010°09'1220.4
2017-Jul-25 09:26N 39°58' W 010°07'920.4
2017-Jul-25 08:59N 40°07' W 010°06'1120.5
2017-Jul-25 08:26N 40°18' W 010°06'3614.7
2017-Jul-25 06:00N 40°54' W 010°00'16921.1 020 / 301021.110.8 18.416.019.0
2017-Jul-24 22:00N 43°42' W 009°42'23219.3 010 / 101027.610.8 18.115.519.0
2017-Jul-24 10:00N 47°06' W 007°06'8726.0 310 / 231024.610.8 16.915.817.0
2017-Jul-24 06:38N 48°25' W 006°10'1720.1
2017-Jul-24 05:49N 48°39' W 005°58'619.5
2017-Jul-24 05:30N 48°44' W 005°53'918.4
2017-Jul-24 05:00N 48°52' W 005°46'816.2
2017-Jul-24 04:30N 48°56' W 005°36'815.7
2017-Jul-24 04:00N 49°00' W 005°26'3119.1
2017-Jul-24 02:23N 49°16' W 004°44'1320.5
2017-Jul-24 01:44N 49°23' W 004°27'521.2
2017-Jul-24 01:30N 49°25' W 004°20'1121.6
2017-Jul-24 01:00N 49°31' W 004°06'1122.2
2017-Jul-24 00:30N 49°36' W 003°52'1122.3
2017-Jul-24 00:00N 49°42' W 003°36'1122.3
2017-Jul-23 23:30N 49°47' W 003°21'1121.6
2017-Jul-23 23:00N 49°55' W 003°10'1020.9
2017-Jul-23 22:30N 50°01' W 002°56'1019.9
2017-Jul-23 22:00N 50°03' W 002°41'151018.7
2017-Jul-23 22:00N 49°54' W 003°00'2449.8 290 / 271015.610.8 16.115.515.0
2017-Jul-23 21:30N 50°05' W 002°27'918.0
2017-Jul-23 21:00N 50°09' W 002°13'917.3
2017-Jul-23 20:29N 50°13' W 002°01'817.0
2017-Jul-23 20:00N 50°17' W 001°50'817.0
2017-Jul-23 19:30N 50°21' W 001°38'917.1
2017-Jul-23 19:00N 50°25' W 001°26'917.2
2017-Jul-23 18:30N 50°28' W 001°14'917.4
2017-Jul-23 18:00N 50°33' W 001°02'917.9
2017-Jul-23 17:30N 50°41' W 000°58'714.5
2017-Jul-23 17:00N 50°45' W 001°07'714.5
2017-Jul-23 16:30N 50°48' W 001°18'5 9.1
2017-Jul-23 16:00N 50°52' W 001°22'2 3.5
2017-Jul-23 15:30N 50°53' W 001°24'0 0.0
2017-Jul-23 15:00N 50°53' W 001°24'0 0.0
2017-Jul-23 14:30N 50°53' W 001°24'0 0.0
2017-Jul-23 14:00N 50°53' W 001°24'0 0.0
2017-Jul-23 13:30N 50°53' W 001°24'0 0.0
2017-Jul-23 13:00N 50°53' W 001°24'0 0.0
2017-Jul-23 12:30N 50°53' W 001°24'0 0.0
2017-Jul-23 12:00N 50°53' W 001°24'0 0.0
2017-Jul-23 11:30N 50°53' W 001°24'0 0.0
2017-Jul-23 11:00N 50°53' W 001°24'0 0.0
2017-Jul-23 10:27N 50°53' W 001°24'0 0.0
2017-Jul-23 10:00N 50°53' W 001°24'0 0.0
2017-Jul-23 09:30N 50°53' W 001°24'0 0.0
2017-Jul-23 09:00N 50°53' W 001°24'0 0.0
2017-Jul-23 08:30N 50°53' W 001°24'0 0.0
2017-Jul-23 07:57N 50°53' W 001°24'0 0.0
2017-Jul-23 07:30N 50°53' W 001°24'0 0.0
2017-Jul-23 06:54N 50°53' W 001°24'0 0.0
2017-Jul-23 06:30N 50°53' W 001°24'0 0.0
2017-Jul-23 06:00N 50°53' W 001°24'1 1.2
2017-Jul-23 05:30N 50°53' W 001°23'5 9.3
2017-Jul-23 05:00N 50°49' W 001°18'4 8.8
2017-Jul-23 04:31N 50°46' W 001°14'816.2
2017-Jul-23 04:00N 50°43' W 001°01'612.3
2017-Jul-23 03:30N 50°39' W 000°55'714.6
2017-Jul-23 03:01N 50°36' W 000°44'816.0
2017-Jul-23 02:30N 50°34' W 000°32'817.0
2017-Jul-23 02:01N 50°33' W 000°19'917.4
2017-Jul-23 01:31N 50°31' W 000°06'917.9
2017-Jul-23 01:00N 50°32' E 000°08'1019.5
2017-Jul-23 00:30N 50°34' E 000°23'1020.5
2017-Jul-23 00:00N 50°38' E 000°38'1019.8
2017-Jul-22 23:31N 50°45' E 000°50'1019.2
2017-Jul-22 23:00N 50°49' E 001°03'918.7
2017-Jul-22 22:30N 50°53' E 001°17'917.8
2017-Jul-22 22:01N 50°60' E 001°26'918.6
2017-Jul-22 21:30N 51°07' E 001°35'1019.6
2017-Jul-22 21:00N 51°14' E 001°46'1121.7
2017-Jul-22 20:31N 51°24' E 001°52'1122.4
2017-Jul-22 20:01N 51°34' E 002°00'1122.7
2017-Jul-22 19:31N 51°44' E 002°08'4521.9
2017-Jul-22 17:26N 52°29' E 002°21'2220.2
2017-Jul-22 16:21N 52°50' E 002°32'1419.8
2017-Jul-22 15:38N 53°04' E 002°38'319.6
2017-Jul-22 15:30N 53°06' E 002°39'1119.6
2017-Jul-22 14:58N 53°16' E 002°45'6119.7
2017-Jul-22 11:52N 54°14' E 003°19'3520.5
2017-Jul-22 10:10N 54°48' E 003°25'34820.3
2017-Jul-21 17:00N 60°35' E 004°22'1020.3
2017-Jul-21 16:30N 60°43' E 004°35'712.9
2017-Jul-21 15:59N 60°42' E 004°48'918.2
2017-Jul-21 15:30N 60°34' E 004°55'1019.4
2017-Jul-21 15:00N 60°25' E 005°04'511.1
2017-Jul-21 14:30N 60°24' E 005°14'2 4.1
2017-Jul-21 13:57N 60°24' E 005°19'0 0.0
2017-Jul-21 13:27N 60°24' E 005°19'0 0.0
2017-Jul-21 12:57N 60°24' E 005°19'0 0.0
2017-Jul-21 12:27N 60°24' E 005°19'0 0.0
2017-Jul-21 11:57N 60°24' E 005°19'0 0.0
2017-Jul-21 11:27N 60°24' E 005°19'0 0.0
2017-Jul-21 10:57N 60°24' E 005°19'0 0.0
2017-Jul-21 10:27N 60°24' E 005°19'0 0.0
2017-Jul-21 09:57N 60°24' E 005°19'0 0.0
2017-Jul-21 09:27N 60°24' E 005°19'0 0.0
2017-Jul-21 08:57N 60°24' E 005°19'0 0.0
2017-Jul-21 08:27N 60°24' E 005°19'0 0.0
2017-Jul-21 07:57N 60°24' E 005°19'0 0.0
2017-Jul-21 07:27N 60°24' E 005°19'0 0.0
2017-Jul-21 06:57N 60°24' E 005°19'0 0.0
2017-Jul-21 06:27N 60°24' E 005°19'0 0.0
2017-Jul-21 05:57N 60°24' E 005°19'0 0.0
2017-Jul-21 05:30N 60°24' E 005°19'2 4.4
2017-Jul-21 05:00N 60°24' E 005°15'4 8.2
2017-Jul-21 04:30N 60°24' E 005°06'714.8
2017-Jul-21 04:00N 60°31' E 004°58'917.1
2017-Jul-21 03:30N 60°38' E 004°51'816.5
2017-Jul-21 03:00N 60°45' E 004°40'816.0
2017-Jul-21 02:30N 60°49' E 004°27'816.3
2017-Jul-21 02:00N 60°57' E 004°21'816.0
2017-Jul-21 01:30N 61°05' E 004°18'816.2
2017-Jul-21 01:00N 61°13' E 004°18'816.4
2017-Jul-21 00:30N 61°21' E 004°19'2916.0
2017-Jul-20 22:41N 61°50' E 004°24'317.1
2017-Jul-20 22:30N 61°53' E 004°27'1018.9
2017-Jul-20 22:00N 62°02' E 004°37'1019.9
2017-Jul-20 21:30N 62°10' E 004°46'1020.0
2017-Jul-20 21:00N 62°18' E 004°58'1020.1
2017-Jul-20 20:30N 62°27' E 005°10'1019.8
2017-Jul-20 20:00N 62°34' E 005°24'1019.8
2017-Jul-20 19:30N 62°40' E 005°41'1019.9
2017-Jul-20 19:00N 62°47' E 005°59'1019.7
2017-Jul-20 18:30N 62°53' E 006°16'1019.5
2017-Jul-20 18:00N 62°57' E 006°35'817.3
2017-Jul-20 17:30N 62°54' E 006°52'713.5
2017-Jul-20 17:00N 62°48' E 006°57'713.4
2017-Jul-20 16:30N 62°42' E 007°03'916.8
2017-Jul-20 16:00N 62°38' E 007°20'915.7
2017-Jul-20 15:27N 62°33' E 007°36'3 6.4
2017-Jul-20 15:00N 62°34' E 007°42'0 0.0
2017-Jul-20 05:47N 62°34' E 007°42'0 1.1
2017-Jul-20 05:28N 62°34' E 007°41'6 7.7
2017-Jul-20 04:39N 62°34' E 007°27'211.9
2017-Jul-20 04:27N 62°36' E 007°24'715.0
2017-Jul-20 04:00N 62°39' E 007°12'715.0
2017-Jul-20 03:30N 62°43' E 006°58'714.9
2017-Jul-20 03:00N 62°51' E 006°59'612.9
2017-Jul-20 02:31N 62°55' E 006°49'715.0
2017-Jul-20 02:01N 62°57' E 006°33'815.2
2017-Jul-20 01:30N 62°55' E 006°17'815.2
2017-Jul-20 01:00N 62°53' E 006°01'815.3
2017-Jul-20 00:31N 62°51' E 005°45'5314.4
2017-Jul-19 20:48N 62°11' E 004°28'414.7
2017-Jul-19 20:29N 62°07' E 004°34'815.5
2017-Jul-19 20:00N 62°02' E 004°46'816.8
2017-Jul-19 19:30N 61°56' E 004°59'815.9
2017-Jul-19 19:00N 61°54' E 005°15'816.2
2017-Jul-19 18:29N 61°55' E 005°33'816.1
2017-Jul-19 18:00N 61°51' E 005°47'1 0.1
2017-Jul-19 04:10N 61°51' E 005°50'214.9
2017-Jul-19 04:00N 61°52' E 005°45'815.9
2017-Jul-19 03:30N 61°55' E 005°29'816.0
2017-Jul-19 03:00N 61°54' E 005°13'713.9
2017-Jul-19 02:30N 61°57' E 004°59'714.6
2017-Jul-19 02:00N 61°57' E 004°43'816.4
2017-Jul-19 01:30N 61°51' E 004°32'816.8
2017-Jul-19 01:00N 61°43' E 004°25'6230.9
2017-Jul-18 23:00N 60°42' E 004°06'6713.7 320 / 91020.310.8 13.011.113.0
2017-Jul-18 18:05N 59°37' E 004°40'220.6
2017-Jul-18 18:00N 59°35' E 004°42'1019.4
2017-Jul-18 17:30N 59°27' E 004°51'918.6
2017-Jul-18 17:01N 59°19' E 004°60'1018.6
2017-Jul-18 16:30N 59°09' E 005°03'918.9
2017-Jul-18 16:01N 59°07' E 005°20'816.5
2017-Jul-18 15:31N 59°03' E 005°35'612.0
2017-Jul-18 15:00N 58°59' E 005°43'1 0.5
2017-Jul-18 14:00N 58°58' E 005°44'0 0.0
2017-Jul-18 13:30N 58°58' E 005°44'0 0.0
2017-Jul-18 13:00N 58°58' E 005°44'0 0.0
2017-Jul-18 12:30N 58°58' E 005°44'0 0.0
2017-Jul-18 12:00N 58°58' E 005°44'0 0.0
2017-Jul-18 11:27N 58°58' E 005°44'0 0.0
2017-Jul-18 11:00N 58°58' E 005°44'0 0.0
2017-Jul-18 10:27N 58°58' E 005°44'0 0.0
2017-Jul-18 10:00N 58°58' E 005°44'0 0.0
2017-Jul-18 09:30N 58°58' E 005°44'0 0.0
2017-Jul-18 09:00N 58°58' E 005°44'0 0.0
2017-Jul-18 08:30N 58°58' E 005°44'0 0.0
2017-Jul-18 08:00N 58°58' E 005°44'0 0.0
2017-Jul-18 07:30N 58°58' E 005°44'0 0.0
2017-Jul-18 07:00N 58°58' E 005°44'0 0.0
2017-Jul-18 06:30N 58°58' E 005°44'0 0.0
2017-Jul-18 06:01N 58°58' E 005°44'1 1.3
2017-Jul-18 05:31N 58°59' E 005°43'510.7
2017-Jul-18 05:01N 59°03' E 005°35'510.6
2017-Jul-18 04:30N 58°58' E 005°33'713.8
2017-Jul-18 04:01N 58°51' E 005°30'713.2
2017-Jul-18 03:31N 58°46' E 005°21'714.8
2017-Jul-18 03:01N 58°40' E 005°13'816.4
2017-Jul-18 02:31N 58°33' E 005°06'816.3
2017-Jul-18 02:01N 58°25' E 005°01'8127.0
2017-Jul-17 23:00N 57°06' E 004°24'14014.0 270 / 271011.410.8 14.913.816.0
2017-Jul-17 13:00N 54°48' E 003°42'5023.1 280 / 251021.810.8 15.815.616.0
2017-Jul-17 10:49N 53°58' E 003°50'619.4
2017-Jul-17 10:30N 53°56' E 003°41'1119.6
2017-Jul-17 09:58N 53°51' E 003°25'1120.8
2017-Jul-17 09:26N 53°42' E 003°13'1020.7
2017-Jul-17 08:58N 53°34' E 003°04'1020.9
2017-Jul-17 08:30N 53°26' E 002°57'1121.2
2017-Jul-17 08:00N 53°16' E 002°49'1121.3
2017-Jul-17 07:30N 53°06' E 002°42'1121.1
2017-Jul-17 07:01N 52°56' E 002°40'1121.2
2017-Jul-17 06:31N 52°45' E 002°40'1121.0
2017-Jul-17 06:01N 52°35' E 002°40'1020.8
2017-Jul-17 05:31N 52°24' E 002°38'1020.3
2017-Jul-17 05:00N 52°14' E 002°37'1019.9
2017-Jul-17 04:31N 52°04' E 002°40'1019.9
2017-Jul-17 04:00N 51°54' E 002°38'919.5
2017-Jul-17 03:30N 51°45' E 002°35'1019.5
2017-Jul-17 03:00N 51°38' E 002°25'1019.2
2017-Jul-17 02:31N 51°30' E 002°15'918.0
2017-Jul-17 02:01N 51°22' E 002°08'917.8
2017-Jul-17 01:31N 51°14' E 002°04'918.6
2017-Jul-17 01:01N 51°09' E 001°51'918.3
2017-Jul-17 00:31N 51°04' E 001°40'918.3
2017-Jul-17 00:01N 50°58' E 001°28'917.9
2017-Jul-16 23:31N 50°50' E 001°24'1118.4
2017-Jul-16 22:56N 50°39' E 001°20'  
Track history (hours):
 
Tides and Currents Weather Stations Pressure Air Temp Water Temp Dewpoint Dewpoint Depression Visibility Wind Speed Wind Dir Waves Ship Positions

Aurora (Bermuda)

Last reported at 2017-Jul-26 22:36 UTC. Time now 2017-Jul-27 00:35 UTC.
Position N 36°01' W 005°09'.

Length 271 m; draft 8.3 m.

Type: Ship. MMSI: 310555970.

Date/timePositionNaut miles runAvg speedWind from/ knotsBaromVisibWave heightAir tempDewpointWater temp
2017-Jul-26 22:36N 36°01' W 005°09'220.5
2017-Jul-26 22:31N 36°01' W 005°11'1020.2
2017-Jul-26 22:00N 35°58' W 005°24'1116.0
2017-Jul-26 21:21N 35°55' W 005°36'514.6
2017-Jul-26 21:00N 35°54' W 005°30'2437.7 050 / 231013.2 2.2 22.420.325.0
2017-Jul-26 20:22N 35°55' W 005°59'1915.8
2017-Jul-26 19:11N 36°03' W 006°20'319.2
2017-Jul-26 19:01N 36°06' W 006°21'1518.4
2017-Jul-26 18:10N 36°21' W 006°24'317.5
2017-Jul-26 18:00N 36°24' W 006°25'816.1
2017-Jul-26 17:30N 36°32' W 006°23'2 0.2
2017-Jul-26 03:48N 36°34' W 006°22'617.1
2017-Jul-26 03:28N 36°34' W 006°29'917.8
2017-Jul-26 02:56N 36°34' W 006°41'818.0
2017-Jul-26 02:30N 36°34' W 006°51'1217.7
2017-Jul-26 01:49N 36°33' W 007°05'1117.9
2017-Jul-26 01:11N 36°32' W 007°20'418.0
2017-Jul-26 00:59N 36°32' W 007°24'1817.5
2017-Jul-25 23:58N 36°32' W 007°46'1817.5
2017-Jul-25 22:56N 36°32' W 008°09'917.7
2017-Jul-25 22:26N 36°32' W 008°20'817.7
2017-Jul-25 22:00N 36°31' W 008°29'917.6
2017-Jul-25 21:30N 36°31' W 008°40'917.5
2017-Jul-25 21:00N 36°32' W 008°51'917.8
2017-Jul-25 20:30N 36°32' W 009°02'917.5
2017-Jul-25 20:00N 36°34' W 009°13'7424.6
2017-Jul-25 20:00N 36°30' W 009°06'1734.5 340 / 301013.710.8 19.717.719.0
2017-Jul-25 19:30N 36°39' W 009°24'1020.4
2017-Jul-25 19:00N 36°46' W 009°32'1020.4
2017-Jul-25 18:30N 36°56' W 009°37'1020.7
2017-Jul-25 18:00N 37°06' W 009°39'1020.6
2017-Jul-25 17:30N 37°16' W 009°42'1020.4
2017-Jul-25 17:00N 37°26' W 009°45'1020.4
2017-Jul-25 16:30N 37°36' W 009°47'1020.6
2017-Jul-25 16:00N 37°46' W 009°50'1020.8
2017-Jul-25 15:30N 37°56' W 009°53'1020.5
2017-Jul-25 15:00N 38°06' W 009°56'2120.7
2017-Jul-25 14:00N 38°26' W 010°02'1020.7
2017-Jul-25 13:30N 38°36' W 010°05'1020.3
2017-Jul-25 13:00N 38°46' W 010°06'1020.3
2017-Jul-25 12:30N 38°57' W 010°08'1020.1
2017-Jul-25 12:00N 39°06' W 010°10'1020.4
2017-Jul-25 11:30N 39°17' W 010°11'1120.7
2017-Jul-25 11:00N 39°27' W 010°11'1020.0
2017-Jul-25 10:30N 39°37' W 010°10'1019.0
2017-Jul-25 10:00N 39°46' W 010°09'1220.4
2017-Jul-25 09:26N 39°58' W 010°07'920.4
2017-Jul-25 08:59N 40°07' W 010°06'1120.5
2017-Jul-25 08:26N 40°18' W 010°06'3614.7
2017-Jul-25 06:00N 40°54' W 010°00'16921.1 020 / 301021.110.8 18.416.019.0
2017-Jul-24 22:00N 43°42' W 009°42'23219.3 010 / 101027.610.8 18.115.519.0
2017-Jul-24 10:00N 47°06' W 007°06'8726.0 310 / 231024.610.8 16.915.817.0
2017-Jul-24 06:38N 48°25' W 006°10'1720.1
2017-Jul-24 05:49N 48°39' W 005°58'619.5
2017-Jul-24 05:30N 48°44' W 005°53'918.4
2017-Jul-24 05:00N 48°52' W 005°46'816.2
2017-Jul-24 04:30N 48°56' W 005°36'815.7
2017-Jul-24 04:00N 49°00' W 005°26'3119.1
2017-Jul-24 02:23N 49°16' W 004°44'1320.5
2017-Jul-24 01:44N 49°23' W 004°27'521.2
2017-Jul-24 01:30N 49°25' W 004°20'1121.6
2017-Jul-24 01:00N 49°31' W 004°06'1122.2
2017-Jul-24 00:30N 49°36' W 003°52'1122.3
2017-Jul-24 00:00N 49°42' W 003°36'1122.3
2017-Jul-23 23:30N 49°47' W 003°21'1121.6
2017-Jul-23 23:00N 49°55' W 003°10'1020.9
2017-Jul-23 22:30N 50°01' W 002°56'1019.9
2017-Jul-23 22:00N 50°03' W 002°41'151018.7
2017-Jul-23 22:00N 49°54' W 003°00'2449.8 290 / 271015.610.8 16.115.515.0
2017-Jul-23 21:30N 50°05' W 002°27'918.0
2017-Jul-23 21:00N 50°09' W 002°13'917.3
2017-Jul-23 20:29N 50°13' W 002°01'817.0
2017-Jul-23 20:00N 50°17' W 001°50'817.0
2017-Jul-23 19:30N 50°21' W 001°38'917.1
2017-Jul-23 19:00N 50°25' W 001°26'917.2
2017-Jul-23 18:30N 50°28' W 001°14'917.4
2017-Jul-23 18:00N 50°33' W 001°02'917.9
2017-Jul-23 17:30N 50°41' W 000°58'714.5
2017-Jul-23 17:00N 50°45' W 001°07'714.5
2017-Jul-23 16:30N 50°48' W 001°18'5 9.1
2017-Jul-23 16:00N 50°52' W 001°22'2 3.5
2017-Jul-23 15:30N 50°53' W 001°24'0 0.0
2017-Jul-23 15:00N 50°53' W 001°24'0 0.0
2017-Jul-23 14:30N 50°53' W 001°24'0 0.0
2017-Jul-23 14:00N 50°53' W 001°24'0 0.0
2017-Jul-23 13:30N 50°53' W 001°24'0 0.0
2017-Jul-23 13:00N 50°53' W 001°24'0 0.0
2017-Jul-23 12:30N 50°53' W 001°24'0 0.0
2017-Jul-23 12:00N 50°53' W 001°24'0 0.0
2017-Jul-23 11:30N 50°53' W 001°24'0 0.0
2017-Jul-23 11:00N 50°53' W 001°24'0 0.0
2017-Jul-23 10:27N 50°53' W 001°24'0 0.0
2017-Jul-23 10:00N 50°53' W 001°24'0 0.0
2017-Jul-23 09:30N 50°53' W 001°24'0 0.0
2017-Jul-23 09:00N 50°53' W 001°24'0 0.0
2017-Jul-23 08:30N 50°53' W 001°24'0 0.0
2017-Jul-23 07:57N 50°53' W 001°24'0 0.0
2017-Jul-23 07:30N 50°53' W 001°24'0 0.0
2017-Jul-23 06:54N 50°53' W 001°24'0 0.0
2017-Jul-23 06:30N 50°53' W 001°24'0 0.0
2017-Jul-23 06:00N 50°53' W 001°24'1 1.2
2017-Jul-23 05:30N 50°53' W 001°23'5 9.3
2017-Jul-23 05:00N 50°49' W 001°18'4 8.8
2017-Jul-23 04:31N 50°46' W 001°14'816.2
2017-Jul-23 04:00N 50°43' W 001°01'612.3
2017-Jul-23 03:30N 50°39' W 000°55'714.6
2017-Jul-23 03:01N 50°36' W 000°44'816.0
2017-Jul-23 02:30N 50°34' W 000°32'817.0
2017-Jul-23 02:01N 50°33' W 000°19'917.4
2017-Jul-23 01:31N 50°31' W 000°06'917.9
2017-Jul-23 01:00N 50°32' E 000°08'1019.5
2017-Jul-23 00:30N 50°34' E 000°23'1020.5
2017-Jul-23 00:00N 50°38' E 000°38'1019.8
2017-Jul-22 23:31N 50°45' E 000°50'1019.2
2017-Jul-22 23:00N 50°49' E 001°03'918.7
2017-Jul-22 22:30N 50°53' E 001°17'917.8
2017-Jul-22 22:01N 50°60' E 001°26'918.6
2017-Jul-22 21:30N 51°07' E 001°35'1019.6
2017-Jul-22 21:00N 51°14' E 001°46'1121.7
2017-Jul-22 20:31N 51°24' E 001°52'1122.4
2017-Jul-22 20:01N 51°34' E 002°00'1122.7
2017-Jul-22 19:31N 51°44' E 002°08'4521.9
2017-Jul-22 17:26N 52°29' E 002°21'2220.2
2017-Jul-22 16:21N 52°50' E 002°32'1419.8
2017-Jul-22 15:38N 53°04' E 002°38'319.6
2017-Jul-22 15:30N 53°06' E 002°39'1119.6
2017-Jul-22 14:58N 53°16' E 002°45'6119.7
2017-Jul-22 11:52N 54°14' E 003°19'3520.5
2017-Jul-22 10:10N 54°48' E 003°25'34820.3
2017-Jul-21 17:00N 60°35' E 004°22'1020.3
2017-Jul-21 16:30N 60°43' E 004°35'712.9
2017-Jul-21 15:59N 60°42' E 004°48'918.2
2017-Jul-21 15:30N 60°34' E 004°55'1019.4
2017-Jul-21 15:00N 60°25' E 005°04'511.1
2017-Jul-21 14:30N 60°24' E 005°14'2 4.1
2017-Jul-21 13:57N 60°24' E 005°19'0 0.0
2017-Jul-21 13:27N 60°24' E 005°19'0 0.0
2017-Jul-21 12:57N 60°24' E 005°19'0 0.0
2017-Jul-21 12:27N 60°24' E 005°19'0 0.0
2017-Jul-21 11:57N 60°24' E 005°19'0 0.0
2017-Jul-21 11:27N 60°24' E 005°19'0 0.0
2017-Jul-21 10:57N 60°24' E 005°19'0 0.0
2017-Jul-21 10:27N 60°24' E 005°19'0 0.0
2017-Jul-21 09:57N 60°24' E 005°19'0 0.0
2017-Jul-21 09:27N 60°24' E 005°19'0 0.0
2017-Jul-21 08:57N 60°24' E 005°19'0 0.0
2017-Jul-21 08:27N 60°24' E 005°19'0 0.0
2017-Jul-21 07:57N 60°24' E 005°19'0 0.0
2017-Jul-21 07:27N 60°24' E 005°19'0 0.0
2017-Jul-21 06:57N 60°24' E 005°19'0 0.0
2017-Jul-21 06:27N 60°24' E 005°19'0 0.0
2017-Jul-21 05:57N 60°24' E 005°19'0 0.0
2017-Jul-21 05:30N 60°24' E 005°19'2 4.4
2017-Jul-21 05:00N 60°24' E 005°15'4 8.2
2017-Jul-21 04:30N 60°24' E 005°06'714.8
2017-Jul-21 04:00N 60°31' E 004°58'917.1
2017-Jul-21 03:30N 60°38' E 004°51'816.5
2017-Jul-21 03:00N 60°45' E 004°40'816.0
2017-Jul-21 02:30N 60°49' E 004°27'816.3
2017-Jul-21 02:00N 60°57' E 004°21'816.0
2017-Jul-21 01:30N 61°05' E 004°18'816.2
2017-Jul-21 01:00N 61°13' E 004°18'816.4
2017-Jul-21 00:30N 61°21' E 004°19'2916.0
2017-Jul-20 22:41N 61°50' E 004°24'317.1
2017-Jul-20 22:30N 61°53' E 004°27'1018.9
2017-Jul-20 22:00N 62°02' E 004°37'1019.9
2017-Jul-20 21:30N 62°10' E 004°46'1020.0
2017-Jul-20 21:00N 62°18' E 004°58'1020.1
2017-Jul-20 20:30N 62°27' E 005°10'1019.8
2017-Jul-20 20:00N 62°34' E 005°24'1019.8
2017-Jul-20 19:30N 62°40' E 005°41'1019.9
2017-Jul-20 19:00N 62°47' E 005°59'1019.7
2017-Jul-20 18:30N 62°53' E 006°16'1019.5
2017-Jul-20 18:00N 62°57' E 006°35'817.3
2017-Jul-20 17:30N 62°54' E 006°52'713.5
2017-Jul-20 17:00N 62°48' E 006°57'713.4
2017-Jul-20 16:30N 62°42' E 007°03'916.8
2017-Jul-20 16:00N 62°38' E 007°20'915.7
2017-Jul-20 15:27N 62°33' E 007°36'3 6.4
2017-Jul-20 15:00N 62°34' E 007°42'0 0.0
2017-Jul-20 05:47N 62°34' E 007°42'0 1.1
2017-Jul-20 05:28N 62°34' E 007°41'6 7.7
2017-Jul-20 04:39N 62°34' E 007°27'211.9
2017-Jul-20 04:27N 62°36' E 007°24'715.0
2017-Jul-20 04:00N 62°39' E 007°12'715.0
2017-Jul-20 03:30N 62°43' E 006°58'714.9
2017-Jul-20 03:00N 62°51' E 006°59'612.9
2017-Jul-20 02:31N 62°55' E 006°49'715.0
2017-Jul-20 02:01N 62°57' E 006°33'815.2
2017-Jul-20 01:30N 62°55' E 006°17'815.2
2017-Jul-20 01:00N 62°53' E 006°01'815.3
2017-Jul-20 00:31N 62°51' E 005°45'5314.4
2017-Jul-19 20:48N 62°11' E 004°28'414.7
2017-Jul-19 20:29N 62°07' E 004°34'815.5
2017-Jul-19 20:00N 62°02' E 004°46'816.8
2017-Jul-19 19:30N 61°56' E 004°59'815.9
2017-Jul-19 19:00N 61°54' E 005°15'816.2
2017-Jul-19 18:29N 61°55' E 005°33'816.1
2017-Jul-19 18:00N 61°51' E 005°47'1 0.1
2017-Jul-19 04:10N 61°51' E 005°50'214.9
2017-Jul-19 04:00N 61°52' E 005°45'815.9
2017-Jul-19 03:30N 61°55' E 005°29'816.0
2017-Jul-19 03:00N 61°54' E 005°13'713.9
2017-Jul-19 02:30N 61°57' E 004°59'714.6
2017-Jul-19 02:00N 61°57' E 004°43'816.4
2017-Jul-19 01:30N 61°51' E 004°32'816.8
2017-Jul-19 01:00N 61°43' E 004°25'6230.9
2017-Jul-18 23:00N 60°42' E 004°06'6713.7 320 / 91020.310.8 13.011.113.0
2017-Jul-18 18:05N 59°37' E 004°40'220.6
2017-Jul-18 18:00N 59°35' E 004°42'1019.4
2017-Jul-18 17:30N 59°27' E 004°51'918.6
2017-Jul-18 17:01N 59°19' E 004°60'1018.6
2017-Jul-18 16:30N 59°09' E 005°03'918.9
2017-Jul-18 16:01N 59°07' E 005°20'816.5
2017-Jul-18 15:31N 59°03' E 005°35'612.0
2017-Jul-18 15:00N 58°59' E 005°43'1 0.5
2017-Jul-18 14:00N 58°58' E 005°44'0 0.0
2017-Jul-18 13:30N 58°58' E 005°44'0 0.0
2017-Jul-18 13:00N 58°58' E 005°44'0 0.0
2017-Jul-18 12:30N 58°58' E 005°44'0 0.0
2017-Jul-18 12:00N 58°58' E 005°44'0 0.0
2017-Jul-18 11:27N 58°58' E 005°44'0 0.0
2017-Jul-18 11:00N 58°58' E 005°44'0 0.0
2017-Jul-18 10:27N 58°58' E 005°44'0 0.0
2017-Jul-18 10:00N 58°58' E 005°44'0 0.0
2017-Jul-18 09:30N 58°58' E 005°44'0 0.0
2017-Jul-18 09:00N 58°58' E 005°44'0 0.0
2017-Jul-18 08:30N 58°58' E 005°44'0 0.0
2017-Jul-18 08:00N 58°58' E 005°44'0 0.0
2017-Jul-18 07:30N 58°58' E 005°44'0 0.0
2017-Jul-18 07:00N 58°58' E 005°44'0 0.0
2017-Jul-18 06:30N 58°58' E 005°44'0 0.0
2017-Jul-18 06:01N 58°58' E 005°44'1 1.3
2017-Jul-18 05:31N 58°59' E 005°43'510.7
2017-Jul-18 05:01N 59°03' E 005°35'510.6
2017-Jul-18 04:30N 58°58' E 005°33'713.8
2017-Jul-18 04:01N 58°51' E 005°30'713.2
2017-Jul-18 03:31N 58°46' E 005°21'714.8
2017-Jul-18 03:01N 58°40' E 005°13'816.4
2017-Jul-18 02:31N 58°33' E 005°06'816.3
2017-Jul-18 02:01N 58°25' E 005°01'8127.0
2017-Jul-17 23:00N 57°06' E 004°24'14014.0 270 / 271011.410.8 14.913.816.0
2017-Jul-17 13:00N 54°48' E 003°42'5023.1 280 / 251021.810.8 15.815.616.0
2017-Jul-17 10:49N 53°58' E 003°50'619.4
2017-Jul-17 10:30N 53°56' E 003°41'1119.6
2017-Jul-17 09:58N 53°51' E 003°25'1120.8
2017-Jul-17 09:26N 53°42' E 003°13'1020.7
2017-Jul-17 08:58N 53°34' E 003°04'1020.9
2017-Jul-17 08:30N 53°26' E 002°57'1121.2
2017-Jul-17 08:00N 53°16' E 002°49'1121.3
2017-Jul-17 07:30N 53°06' E 002°42'1121.1
2017-Jul-17 07:01N 52°56' E 002°40'1121.2
2017-Jul-17 06:31N 52°45' E 002°40'1121.0
2017-Jul-17 06:01N 52°35' E 002°40'1020.8
2017-Jul-17 05:31N 52°24' E 002°38'1020.3
2017-Jul-17 05:00N 52°14' E 002°37'1019.9
2017-Jul-17 04:31N 52°04' E 002°40'1019.9
2017-Jul-17 04:00N 51°54' E 002°38'919.5
2017-Jul-17 03:30N 51°45' E 002°35'1019.5
2017-Jul-17 03:00N 51°38' E 002°25'1019.2
2017-Jul-17 02:31N 51°30' E 002°15'918.0
2017-Jul-17 02:01N 51°22' E 002°08'917.8
2017-Jul-17 01:31N 51°14' E 002°04'918.6
2017-Jul-17 01:01N 51°09' E 001°51'918.3
2017-Jul-17 00:31N 51°04' E 001°40'918.3
2017-Jul-17 00:01N 50°58' E 001°28'917.9
2017-Jul-16 23:31N 50°50' E 001°24'1118.4
2017-Jul-16 22:56N 50°39' E 001°20'  

Dump ship's entire track history